Time;durP1;ratioP1;P1;durP2;ratioP2;P2;SDS_P1;SDS_P2;PMS_P1;PMS_P2;Temp;Humidity;BMP_temperature;BMP_pressure;BME280_temperature;BME280_humidity;BME280_pressure;Samples;Min_cycle;Max_cycle;Signal;HPM_P1;HPM_P2
2021/10/25 00:01:51;;;;;;;;;;;;;;;15.41;54.60;101871.44;4944976;29;19918;-90
2021/10/25 00:04:17;;;;;;;;;;;;;;;15.18;54.42;101882.63;4946020;29;19925;-89
2021/10/25 00:06:42;;;;;;;;;;;;;;;15.00;55.66;101877.13;4945662;29;19926;-90
2021/10/25 00:09:07;;;;;;;;;;;;;;;15.56;53.88;101869.72;4928666;29;19927;-88
2021/10/25 00:11:33;;;;;;;;;;;;;;;15.53;54.62;101867.16;4929509;29;19950;-91
2021/10/25 00:14:00;;;;;;;;;;;;;;;15.21;54.74;101856.06;4945318;29;19925;-90
2021/10/25 00:16:26;;;;;;;;;;;;;;;15.64;54.00;101868.44;4930596;29;19965;-89
2021/10/25 00:18:52;;;;;;;;;;;;;;;15.75;52.77;101863.31;4946068;29;19982;-88
2021/10/25 00:21:17;;;;;;;;;;;;;;;15.75;53.55;101863.31;4945786;29;20494;-89
2021/10/25 00:23:43;;;;;;;;;;;;;;;15.67;52.88;101854.66;4945583;29;20325;-90
2021/10/25 00:26:08;;;;;;;;;;;;;;;15.91;52.07;101855.22;4945458;29;20285;-91
2021/10/25 00:28:33;;;;;;;;;;;;;;;15.59;53.25;101850.50;4945249;29;19919;-91
2021/10/25 00:30:59;;;;;;;;;;;;;;;15.31;53.86;101847.41;4945207;29;20025;-89
2021/10/25 00:33:24;;;;;;;;;;;;;;;15.97;52.33;101852.16;4945710;29;19918;-91
2021/10/25 00:35:49;;;;;;;;;;;;;;;15.26;54.04;101844.06;4945900;29;19925;-90
2021/10/25 00:38:15;;;;;;;;;;;;;;;15.40;54.30;101845.13;4945375;28;19929;-89
2021/10/25 00:40:41;;;;;;;;;;;;;;;15.25;54.56;101845.91;4960938;29;19918;-89
2021/10/25 00:43:06;;;;;;;;;;;;;;;15.16;54.65;101840.94;4960861;29;19919;-89
2021/10/25 00:45:32;;;;;;;;;;;;;;;15.80;53.34;101844.88;4960492;29;20296;-89
2021/10/25 00:47:57;;;;;;;;;;;;;;;15.87;51.99;101840.88;4959839;29;20388;-88
2021/10/25 00:50:23;;;;;;;;;;;;;;;16.09;51.23;101839.69;4960284;29;20296;-91
2021/10/25 00:52:48;;;;;;;;;;;;;;;15.99;51.86;101833.84;4960403;29;19923;-90
2021/10/25 00:55:13;;;;;;;;;;;;;;;15.22;54.36;101836.03;4959478;29;19919;-88
2021/10/25 00:57:39;;;;;;;;;;;;;;;15.68;53.08;101840.06;4959460;29;20322;-88
2021/10/25 01:00:06;;;;;;;;;;;;;;;15.18;54.36;101836.28;4959138;29;20013;-88
2021/10/25 01:02:31;;;;;;;;;;;;;;;15.05;54.80;101839.63;4959906;29;19918;-91
2021/10/25 01:04:56;;;;;;;;;;;;;;;14.85;55.74;101840.63;4959950;28;19919;-89
2021/10/25 01:07:22;;;;;;;;;;;;;;;15.67;53.49;101838.28;4960038;29;19993;-89
2021/10/25 01:09:48;;;;;;;;;;;;;;;15.86;52.83;101839.09;4960489;29;19918;-89
2021/10/25 01:12:15;;;;;;;;;;;;;;;15.27;54.73;101835.81;4960911;29;19918;-89
2021/10/25 01:14:40;;;;;;;;;;;;;;;15.69;53.30;101841.81;4962957;29;20013;-89
2021/10/25 01:17:06;;;;;;;;;;;;;;;15.68;53.08;101845.50;4960762;29;19956;-89
2021/10/25 01:19:31;;;;;;;;;;;;;;;15.42;54.11;101845.03;4963327;28;19926;-90
2021/10/25 01:21:58;;;;;;;;;;;;;;;15.20;54.27;101850.69;4948777;29;19926;-89
2021/10/25 01:24:23;;;;;;;;;;;;;;;15.27;54.19;101846.72;4947639;29;19926;-89
2021/10/25 01:26:48;;;;;;;;;;;;;;;15.08;54.29;101846.75;4963539;29;19919;-90
2021/10/25 01:29:17;;;;;;;;;;;;;;;15.71;53.02;101839.88;4963192;29;19925;-91
2021/10/25 01:31:42;;;;;;;;;;;;;;;15.84;52.64;101842.88;4963510;29;19973;-90
2021/10/25 01:34:07;;;;;;;;;;;;;;;15.19;54.25;101841.66;4947142;29;19934;-90
2021/10/25 01:36:33;;;;;;;;;;;;;;;15.64;53.21;101841.16;4962772;29;20349;-91
2021/10/25 01:38:58;;;;;;;;;;;;;;;14.91;54.82;101836.72;4962577;28;19942;-89
2021/10/25 01:41:24;;;;;;;;;;;;;;;15.10;54.94;101833.03;4947006;29;19918;-91
2021/10/25 01:43:49;;;;;;;;;;;;;;;15.20;54.46;101829.81;4946961;29;20304;-89
2021/10/25 01:46:14;;;;;;;;;;;;;;;15.09;54.84;101831.31;4962503;29;19925;-90
2021/10/25 01:48:39;;;;;;;;;;;;;;;16.07;51.81;101837.03;4962283;29;19997;-89
2021/10/25 01:51:05;;;;;;;;;;;;;;;15.22;54.24;101824.28;4963260;29;20360;-89
2021/10/25 01:53:31;;;;;;;;;;;;;;;15.81;53.29;101826.69;4947498;29;20413;-90
2021/10/25 01:55:58;;;;;;;;;;;;;;;15.79;52.71;101824.00;4962677;29;19978;-90
2021/10/25 01:58:24;;;;;;;;;;;;;;;15.48;52.56;101822.91;4962620;29;19923;-89
2021/10/25 02:00:50;;;;;;;;;;;;;;;15.59;52.80;101825.06;4962825;29;19966;-90
2021/10/25 02:03:15;;;;;;;;;;;;;;;15.99;52.22;101820.22;4962682;29;20308;-90
2021/10/25 02:05:41;;;;;;;;;;;;;;;15.45;54.08;101817.59;4962303;29;19966;-89
2021/10/25 02:08:06;;;;;;;;;;;;;;;15.06;54.90;101815.97;4962452;29;20380;-89
2021/10/25 02:10:33;;;;;;;;;;;;;;;15.09;55.23;101813.09;4962690;29;19926;-90
2021/10/25 02:12:58;;;;;;;;;;;;;;;15.73;53.26;101810.66;4962351;29;19930;-89
2021/10/25 02:15:24;;;;;;;;;;;;;;;15.99;52.52;101811.13;4962088;29;19926;-90
2021/10/25 02:17:49;;;;;;;;;;;;;;;15.50;54.22;101807.31;4962095;29;19926;-89
2021/10/25 02:20:15;;;;;;;;;;;;;;;15.66;53.66;101810.13;4962200;29;20065;-90
2021/10/25 02:22:40;;;;;;;;;;;;;;;15.91;52.70;101800.63;4962654;29;19925;-89
2021/10/25 02:25:06;;;;;;;;;;;;;;;15.93;52.87;101804.19;4965406;29;19915;-88
2021/10/25 02:27:31;;;;;;;;;;;;;;;15.88;52.50;101804.44;4956102;29;19919;-88
2021/10/25 02:29:57;;;;;;;;;;;;;;;15.49;54.33;101797.41;4964344;28;19915;-89
2021/10/25 02:32:22;;;;;;;;;;;;;;;15.95;53.12;101797.66;4961828;29;20357;-90
2021/10/25 02:34:48;;;;;;;;;;;;;;;16.04;52.87;101800.84;4962241;29;19919;-89
2021/10/25 02:37:14;;;;;;;;;;;;;;;16.41;51.31;101796.03;4962378;28;19977;-90
2021/10/25 02:39:39;;;;;;;;;;;;;;;15.90;53.39;101791.56;4961394;29;19923;-90
2021/10/25 02:42:05;;;;;;;;;;;;;;;16.61;50.86;101786.72;4961285;29;19942;-90
2021/10/25 02:44:30;;;;;;;;;;;;;;;16.94;49.83;101788.44;4945907;29;19961;-89
2021/10/25 02:46:56;;;;;;;;;;;;;;;16.21;52.44;101783.53;4961392;28;19919;-88
2021/10/25 02:49:22;;;;;;;;;;;;;;;16.44;52.06;101787.66;4961235;29;19993;-90
2021/10/25 02:51:47;;;;;;;;;;;;;;;15.77;53.77;101785.88;4961225;29;20206;-89
2021/10/25 02:54:12;;;;;;;;;;;;;;;16.29;52.83;101779.41;4961547;29;19918;-91
2021/10/25 02:56:38;;;;;;;;;;;;;;;16.50;52.71;101787.34;4960613;29;19922;-87
2021/10/25 02:59:08;;;;;;;;;;;;;;;16.29;53.19;101784.84;4960480;29;20015;-88
2021/10/25 03:01:34;;;;;;;;;;;;;;;16.49;52.42;101782.84;4960949;29;19919;-89
2021/10/25 03:03:59;;;;;;;;;;;;;;;16.28;53.48;101776.75;4960925;29;19987;-88
2021/10/25 03:06:24;;;;;;;;;;;;;;;16.28;53.65;101776.75;4960886;29;19925;-91
2021/10/25 03:08:50;;;;;;;;;;;;;;;16.38;53.44;101772.53;4961074;29;19922;-89
2021/10/25 03:11:15;;;;;;;;;;;;;;;16.57;54.21;101779.66;4961042;29;19983;-90
2021/10/25 03:13:40;;;;;;;;;;;;;;;16.12;56.31;101774.00;4961304;29;20021;-89
2021/10/25 03:16:05;;;;;;;;;;;;;;;16.77;53.93;101773.03;4961605;29;19918;-92
2021/10/25 03:18:31;;;;;;;;;;;;;;;16.91;53.75;101781.31;4960666;29;19935;-91
2021/10/25 03:20:56;;;;;;;;;;;;;;;16.78;54.26;101770.19;4960666;29;19947;-91
2021/10/25 03:23:23;;;;;;;;;;;;;;;17.39;52.66;101777.56;4960748;29;20340;-92
2021/10/25 03:25:49;;;;;;;;;;;;;;;16.53;55.50;101773.50;4945117;29;19951;-90
2021/10/25 03:28:14;;;;;;;;;;;;;;;16.63;55.33;101776.56;4960444;29;19923;-88
2021/10/25 03:30:39;;;;;;;;;;;;;;;16.70;55.78;101779.81;4960502;29;19974;-90
2021/10/25 03:33:05;;;;;;;;;;;;;;;16.66;55.91;101763.59;4945081;29;19969;-90
2021/10/25 03:35:30;;;;;;;;;;;;;;;16.35;56.78;101774.53;4960680;29;19942;-91
2021/10/25 03:37:57;;;;;;;;;;;;;;;16.60;56.28;101772.16;4961010;28;19947;-90
2021/10/25 03:40:23;;;;;;;;;;;;;;;16.56;57.13;101776.06;4960946;29;19926;-90
2021/10/25 03:42:51;;;;;;;;;;;;;;;16.72;56.67;101770.56;4944314;29;19957;-90
2021/10/25 03:48:03;;;;;;;;;;;;;;;16.14;59.19;101763.88;4945525;29;19953;-90
2021/10/25 03:50:32;;;;;;;;;;;;;;;16.02;59.77;101768.19;4961678;29;20025;-90
2021/10/25 04:30:13;;;;;;;;;;;;;;;15.79;62.86;101766.72;4955981;29;19922;-86
2021/10/25 04:32:38;;;;;;;;;;;;;;;16.21;60.81;101768.00;4954732;29;19969;-85
2021/10/25 04:35:04;;;;;;;;;;;;;;;16.34;61.38;101770.06;4954452;29;19919;-87
2021/10/25 04:37:29;;;;;;;;;;;;;;;15.98;62.27;101772.03;4938524;29;19923;-87
2021/10/25 04:39:54;;;;;;;;;;;;;;;16.10;62.10;101773.22;4954535;29;20527;-85
2021/10/25 04:42:20;;;;;;;;;;;;;;;16.51;60.70;101769.97;4957245;28;19923;-89
2021/10/25 04:44:46;;;;;;;;;;;;;;;16.41;60.28;101769.63;4957458;29;20329;-90
2021/10/25 04:47:12;;;;;;;;;;;;;;;16.90;59.29;101760.44;4957057;29;20013;-90
2021/10/25 04:49:37;;;;;;;;;;;;;;;16.51;59.94;101764.50;4957309;29;19958;-90
2021/10/25 04:52:03;;;;;;;;;;;;;;;16.18;61.31;101757.25;4960108;29;19919;-87
2021/10/25 04:54:31;;;;;;;;;;;;;;;16.44;61.31;101761.25;4977028;28;19969;-90
2021/10/25 04:56:56;;;;;;;;;;;;;;;16.05;62.74;101769.88;4984031;28;19966;-91
2021/10/25 04:59:22;;;;;;;;;;;;;;;17.05;59.52;101764.09;4983423;28;19922;-89
2021/10/25 05:01:47;;;;;;;;;;;;;;;16.61;60.14;101753.94;4975264;28;19945;-90
2021/10/25 05:04:12;;;;;;;;;;;;;;;16.04;62.91;101754.44;4973592;29;19918;-89
2021/10/25 05:06:38;;;;;;;;;;;;;;;15.99;62.96;101754.72;4977466;29;19918;-94
2021/10/25 05:09:06;;;;;;;;;;;;;;;16.73;61.40;101746.88;4977362;29;19906;-90
2021/10/25 05:11:48;;;;;;;;;;;;;;;17.10;59.83;101751.00;4979833;28;19915;-93
2021/10/25 05:14:14;;;;;;;;;;;;;;;16.50;61.77;101757.28;4954539;29;19922;-90
2021/10/25 05:16:39;;;;;;;;;;;;;;;16.71;60.85;101755.13;4956689;29;19922;-91
2021/10/25 05:19:04;;;;;;;;;;;;;;;16.33;62.40;101760.09;4978256;29;19923;-90
2021/10/25 05:21:29;;;;;;;;;;;;;;;16.43;62.03;101756.75;4976227;29;19918;-92
2021/10/25 05:23:55;;;;;;;;;;;;;;;16.64;61.47;101754.63;4978149;28;19930;-91
2021/10/25 05:26:20;;;;;;;;;;;;;;;16.52;61.89;101752.63;4966320;28;19923;-92
2021/10/25 05:28:45;;;;;;;;;;;;;;;16.97;60.30;101750.88;4960361;29;19961;-91
2021/10/25 05:31:11;;;;;;;;;;;;;;;16.36;62.23;101743.53;4959676;29;19918;-91
2021/10/25 05:33:37;;;;;;;;;;;;;;;16.66;62.09;101740.88;4959948;29;19922;-88
2021/10/25 05:36:03;;;;;;;;;;;;;;;15.99;64.80;101743.78;4958786;29;19929;-86
2021/10/25 05:38:28;;;;;;;;;;;;;;;16.58;62.80;101738.59;4957805;28;19958;-89
2021/10/25 05:40:54;;;;;;;;;;;;;;;16.44;62.21;101743.97;4958497;29;19977;-88
2021/10/25 05:43:19;;;;;;;;;;;;;;;16.09;63.96;101738.69;4941559;29;19946;-86
2021/10/25 05:45:44;;;;;;;;;;;;;;;16.82;62.19;101732.66;4959089;29;19941;-85
2021/10/25 05:48:09;;;;;;;;;;;;;;;17.08;59.87;101732.97;4960503;29;19933;-86
2021/10/25 05:50:35;;;;;;;;;;;;;;;16.63;60.89;101735.59;4957477;29;19918;-91
2021/10/25 05:53:00;;;;;;;;;;;;;;;16.95;60.05;101727.34;4957420;29;19919;-87
2021/10/25 05:55:26;;;;;;;;;;;;;;;16.92;60.80;101735.72;4957698;29;19965;-88
2021/10/25 05:57:52;;;;;;;;;;;;;;;16.21;62.80;101729.78;4956999;29;19941;-85
2021/10/25 06:00:21;;;;;;;;;;;;;;;16.86;61.36;101726.00;4957240;29;19934;-87
2021/10/25 06:02:53;;;;;;;;;;;;;;;16.62;61.62;101731.09;4957584;29;19981;-88
2021/10/25 06:05:20;;;;;;;;;;;;;;;15.81;64.39;101734.78;4956879;28;20368;-86
2021/10/25 06:07:46;;;;;;;;;;;;;;;16.09;63.34;101734.13;4957539;29;19919;-88
2021/10/25 06:10:13;;;;;;;;;;;;;;;16.16;62.80;101723.72;4957538;29;19918;-87
2021/10/25 06:12:41;;;;;;;;;;;;;;;16.52;61.83;101721.69;4957599;29;19934;-88
2021/10/25 06:15:11;;;;;;;;;;;;;;;16.22;62.64;101726.09;4957418;29;20009;-88
2021/10/25 06:17:50;;;;;;;;;;;;;;;16.00;63.10;101731.03;4958214;28;19978;-88
2021/10/25 06:20:15;;;;;;;;;;;;;;;16.94;60.38;101733.78;4957118;29;19918;-88
2021/10/25 06:22:41;;;;;;;;;;;;;;;16.48;61.73;101731.91;4955430;29;19926;-88
2021/10/25 06:25:07;;;;;;;;;;;;;;;16.80;61.00;101742.78;4956166;29;19933;-89
2021/10/25 06:27:33;;;;;;;;;;;;;;;17.28;58.83;101740.81;4955988;29;19924;-88
2021/10/25 06:29:58;;;;;;;;;;;;;;;17.05;60.64;101735.88;4956437;29;20112;-88
2021/10/25 06:32:23;;;;;;;;;;;;;;;16.86;59.94;101736.06;4956732;29;19961;-89
2021/10/25 06:34:50;;;;;;;;;;;;;;;16.88;61.09;101739.63;4957352;28;19984;-89
2021/10/25 06:37:18;;;;;;;;;;;;;;;16.64;61.15;101726.44;4956639;28;20257;-89
2021/10/25 06:39:51;;;;;;;;;;;;;;;15.79;64.12;101738.56;4955973;29;19923;-88
2021/10/25 06:42:16;;;;;;;;;;;;;;;16.01;63.93;101732.78;4955062;28;20025;-89
2021/10/25 06:47:13;;;;;;;;;;;;;;;16.45;62.42;101740.28;4956546;29;20416;-89
2021/10/25 06:49:38;;;;;;;;;;;;;;;16.53;62.16;101734.34;4955781;29;19923;-89
2021/10/25 06:52:04;;;;;;;;;;;;;;;16.88;60.61;101739.63;4955155;29;19918;-89
2021/10/25 06:54:29;;;;;;;;;;;;;;;16.81;60.68;101733.63;4955938;29;19927;-86
2021/10/25 06:56:54;;;;;;;;;;;;;;;16.44;62.20;101753.06;4956107;29;19926;-87
2021/10/25 06:59:19;;;;;;;;;;;;;;;16.65;61.83;101736.38;4956147;29;19919;-86
2021/10/25 07:01:45;;;;;;;;;;;;;;;16.22;63.09;101742.47;4957077;29;20369;-87
2021/10/25 07:04:10;;;;;;;;;;;;;;;16.21;62.84;101745.31;4940231;29;19968;-87
2021/10/25 07:06:37;;;;;;;;;;;;;;;16.01;64.22;101740.97;4956118;29;19914;-86
2021/10/25 07:09:03;;;;;;;;;;;;;;;16.73;61.67;101741.41;4956930;29;19918;-88
2021/10/25 07:11:29;;;;;;;;;;;;;;;16.40;62.47;101745.13;4948974;29;19931;-86
2021/10/25 07:13:55;;;;;;;;;;;;;;;16.24;63.07;101751.44;4930436;29;20337;-86
2021/10/25 07:16:29;;;;;;;;;;;;;;;16.72;61.78;101743.22;4938422;29;20542;-87
2021/10/25 07:19:09;;;;;;;;;;;;;;;16.64;62.04;101754.63;4939779;29;19926;-87
2021/10/25 07:59:35;;;;;;;;;;;;;;;16.56;62.28;101761.50;4955625;29;19922;-88
2021/10/25 08:00:21;;;;;;;;;;;;;;;16.63;62.04;101782.03;4956567;29;19942;-86
2021/10/25 08:08:13;;;;;;;;;;;;;;;16.74;63.14;101778.66;4956167;29;19923;-88
2021/10/25 08:10:43;;;;;;;;;;;;;;;16.52;62.54;101776.31;4955775;29;19922;-87
2021/10/25 08:13:14;;;;;;;;;;;;;;;16.24;64.40;101781.47;4956570;29;20012;-87
2021/10/25 08:15:43;;;;;;;;;;;;;;;16.91;62.67;101773.13;4956047;29;19956;-87
2021/10/25 08:18:23;;;;;;;;;;;;;;;16.66;63.00;101777.25;4955371;29;19986;-86
2021/10/25 08:20:49;;;;;;;;;;;;;;;17.15;61.58;101769.88;4956153;29;19958;-88
2021/10/25 08:23:14;;;;;;;;;;;;;;;17.14;61.56;101773.59;4956878;29;19958;-86
2021/10/25 08:25:39;;;;;;;;;;;;;;;16.86;63.18;101772.47;4955553;29;19918;-87
2021/10/25 08:28:04;;;;;;;;;;;;;;;16.54;62.92;101775.25;4955835;29;19965;-88
2021/10/25 08:30:30;;;;;;;;;;;;;;;17.16;61.89;101777.97;4955284;29;19926;-88
2021/10/25 08:41:00;;;;;;;;;;;;;;;16.62;63.31;101775.69;4956742;29;20380;-88
2021/10/25 08:43:25;;;;;;;;;;;;;;;16.84;62.61;101774.41;4954751;29;19918;-86
2021/10/25 08:45:54;;;;;;;;;;;;;;;16.80;62.51;101770.09;4954729;29;19931;-86
2021/10/25 08:48:21;;;;;;;;;;;;;;;17.33;61.13;101770.59;4954524;29;19922;-85
2021/10/25 08:50:46;;;;;;;;;;;;;;;16.71;62.36;101771.53;4954569;29;19925;-86
2021/10/25 08:53:12;;;;;;;;;;;;;;;17.26;60.85;101766.50;4954642;29;19918;-89
2021/10/25 08:55:38;;;;;;;;;;;;;;;17.06;61.47;101774.06;4954888;29;19925;-89
2021/10/25 08:58:05;;;;;;;;;;;;;;;16.92;62.02;101779.47;4955276;29;20249;-90
2021/10/25 09:00:41;;;;;;;;;;;;;;;17.30;61.46;101774.44;4954880;29;19919;-89
2021/10/25 09:03:10;;;;;;;;;;;;;;;17.17;61.39;101779.75;4954690;29;19918;-90
2021/10/25 09:05:36;;;;;;;;;;;;;;;16.32;63.27;101781.09;4955478;29;20312;-91
2021/10/25 09:08:04;;;;;;;;;;;;;;;16.69;63.14;101786.25;4955823;29;19925;-90
2021/10/25 09:10:32;;;;;;;;;;;;;;;17.29;62.04;101786.34;4955146;29;19922;-90
2021/10/25 09:13:03;;;;;;;;;;;;;;;17.29;61.07;101783.59;4954491;29;19918;-90
2021/10/25 09:15:32;;;;;;;;;;;;;;;17.36;61.35;101773.16;4954578;29;20399;-90
2021/10/25 09:17:58;;;;;;;;;;;;;;;17.45;60.55;101772.59;4954595;29;19930;-90
2021/10/25 09:20:23;;;;;;;;;;;;;;;17.89;58.94;101771.69;4954471;29;19926;-90
2021/10/25 09:23:16;;;;;;;;;;;;;;;17.38;60.34;101776.69;4954759;29;19931;-90
2021/10/25 09:25:49;;;;;;;;;;;;;;;16.98;62.12;101777.25;4955674;29;19918;-90
2021/10/25 09:28:25;;;;;;;;;;;;;;;16.93;63.23;101773.03;4954679;29;19930;-90
2021/10/25 09:30:59;;;;;;;;;;;;;;;17.19;62.01;101771.44;4956088;29;19978;-91
2021/10/25 09:33:32;;;;;;;;;;;;;;;17.93;59.76;101766.88;4954849;29;19944;-89
2021/10/25 09:36:02;;;;;;;;;;;;;;;17.73;60.29;101761.78;4954328;29;20008;-91
2021/10/25 09:49:26;;;;;;;;;;;;;;;17.36;61.65;101767.69;4959536;29;20296;-87
2021/10/25 09:51:56;;;;;;;;;;;;;;;17.66;61.12;101769.50;4957462;29;20479;-87
2021/10/25 09:54:24;;;;;;;;;;;;;;;17.89;60.71;101768.09;4957409;29;19918;-87
2021/10/25 09:57:02;;;;;;;;;;;;;;;17.21;61.66;101772.25;4957140;29;19995;-87
2021/10/25 10:02:12;;;;;;;;;;;;;;;18.41;58.52;101777.50;4959622;23;19934;-89
2021/10/25 10:04:38;;;;;;;;;;;;;;;17.89;59.46;101770.81;4940881;29;19918;-89
2021/10/25 10:07:04;;;;;;;;;;;;;;;17.78;60.13;101762.38;4941407;29;19918;-89
2021/10/25 10:09:29;;;;;;;;;;;;;;;17.63;61.26;101765.06;4941768;29;19919;-89
2021/10/25 10:11:55;;;;;;;;;;;;;;;17.99;59.84;101771.09;4941410;29;19955;-88
2021/10/25 10:14:22;;;;;;;;;;;;;;;17.21;63.11;101764.06;4941483;29;19919;-88
2021/10/25 10:16:48;;;;;;;;;;;;;;;18.72;58.16;101757.16;4941165;29;19922;-91
2021/10/25 10:19:43;;;;;;;;;;;;;;;;;;;;;
2021/10/25 10:22:09;;;;;;;;;;;;;;;17.98;59.79;101755.63;4958125;29;19933;-89
2021/10/25 10:24:35;;;;;;;;;;;;;;;18.14;59.57;101758.28;4940290;29;20001;-89
2021/10/25 10:27:06;;;;;;;;;;;;;;;18.88;56.97;101758.88;4940938;29;19918;-90
2021/10/25 10:29:37;;;;;;;;;;;;;;;18.00;60.00;101753.69;4941029;29;19923;-89
2021/10/25 10:32:05;;;;;;;;;;;;;;;18.20;59.25;101757.88;4940862;29;20026;-90
2021/10/25 10:34:40;;;;;;;;;;;;;;;18.24;59.66;101764.91;4940678;29;20067;-90
2021/10/25 10:37:14;;;;;;;;;;;;;;;18.33;58.38;101758.84;4940431;29;19919;-89
2021/10/25 10:39:39;;;;;;;;;;;;;;;18.47;58.55;101755.16;4940315;29;20010;-89
2021/10/25 10:42:06;;;;;;;;;;;;;;;18.51;58.15;101758.56;4940552;29;19934;-89
2021/10/25 10:44:32;;;;;;;;;;;;;;;18.57;58.53;101755.44;4940582;29;19919;-89
2021/10/25 10:47:00;;;;;;;;;;;;;;;18.22;60.10;101753.16;4940916;29;19981;-89
2021/10/25 10:49:27;;;;;;;;;;;;;;;17.91;60.49;101755.16;4940478;29;19918;-88
2021/10/25 10:52:30;;;;;;;;;;;;;;;18.57;58.92;101749.97;4940208;29;19919;-88
2021/10/25 10:55:05;;;;;;;;;;;;;;;18.71;57.92;101749.03;4940465;29;19918;-88
2021/10/25 11:00:27;;;;;;;;;;;;;;;18.58;58.83;101748.97;4957526;29;20436;-88
2021/10/25 11:02:54;;;;;;;;;;;;;;;18.64;58.20;101751.28;4940436;29;19929;-86
2021/10/25 11:05:30;;;;;;;;;;;;;;;19.05;57.15;101755.88;4940632;29;19918;-86
2021/10/25 11:08:00;;;;;;;;;;;;;;;19.19;56.66;101756.75;4940492;29;19918;-86
2021/10/25 11:10:28;;;;;;;;;;;;;;;18.49;58.31;101753.19;4956976;29;19923;-85
2021/10/25 11:13:00;;;;;;;;;;;;;;;18.68;57.98;101744.63;4939751;29;19926;-86
2021/10/25 11:15:34;;;;;;;;;;;;;;;17.79;60.60;101764.13;4939452;29;20008;-85
2021/10/25 11:18:01;;;;;;;;;;;;;;;18.45;59.07;101753.50;4940020;29;19919;-85
2021/10/25 11:20:26;;;;;;;;;;;;;;;18.53;58.75;101756.63;4939993;29;19918;-87
2021/10/25 11:22:52;;;;;;;;;;;;;;;18.95;56.39;101755.63;4939928;29;19941;-87
2021/10/25 11:25:18;;;;;;;;;;;;;;;18.41;58.33;101761.94;4939967;29;20028;-87
2021/10/25 11:27:43;;;;;;;;;;;;;;;18.20;59.05;101764.22;4939921;29;19922;-88
2021/10/25 11:30:10;;;;;;;;;;;;;;;18.34;58.89;101762.44;4940014;29;19919;-90
2021/10/25 11:32:37;;;;;;;;;;;;;;;19.77;54.79;101755.41;4940040;29;20372;-88
2021/10/25 11:35:06;;;;;;;;;;;;;;;18.85;57.74;101756.31;4940617;29;20431;-87
2021/10/25 11:37:33;;;;;;;;;;;;;;;19.68;55.00;101753.28;4958500;29;19925;-88
2021/10/25 11:42:29;;;;;;;;;;;;;;;18.49;58.85;101766.03;4960704;29;19922;-88
2021/10/25 11:45:05;;;;;;;;;;;;;;;19.39;55.77;101750.75;4939153;29;19914;-87
2021/10/25 11:47:32;;;;;;;;;;;;;;;18.98;56.76;101754.53;4938266;29;20284;-86
2021/10/25 11:50:16;;;;;;;;;;;;;;;18.93;56.93;101749.38;4938519;29;19915;-87
2021/10/25 11:52:41;;;;;;;;;;;;;;;18.06;59.61;101739.59;4939092;29;19918;-88
2021/10/25 11:55:08;;;;;;;;;;;;;;;18.97;57.93;101735.44;4956027;29;19925;-87
2021/10/25 11:57:33;;;;;;;;;;;;;;;19.33;56.58;101737.47;4937494;29;19918;-88
2021/10/25 12:00:02;;;;;;;;;;;;;;;18.92;57.62;101739.38;4937879;29;19926;-88
2021/10/25 12:02:27;;;;;;;;;;;;;;;18.86;57.96;101733.44;4937411;29;19927;-88
2021/10/25 12:04:52;;;;;;;;;;;;;;;19.18;56.94;101738.56;4938210;29;19930;-88
2021/10/25 12:07:18;;;;;;;;;;;;;;;18.56;59.89;101732.63;4938026;29;19941;-88
2021/10/25 12:09:43;;;;;;;;;;;;;;;19.27;56.87;101733.28;4937716;29;20085;-88
2021/10/25 12:12:14;;;;;;;;;;;;;;;19.37;56.35;101739.03;4955723;29;19925;-87
2021/10/25 12:14:42;;;;;;;;;;;;;;;18.87;57.38;101738.81;4938978;29;19929;-88
2021/10/25 12:17:08;;;;;;;;;;;;;;;17.98;60.30;101734.63;4938893;29;19918;-88
2021/10/25 12:19:35;;;;;;;;;;;;;;;18.08;61.17;101739.50;4938755;29;19922;-88
2021/10/25 12:22:11;;;;;;;;;;;;;;;19.12;57.60;101740.72;4938757;29;19923;-88
2021/10/25 12:24:42;;;;;;;;;;;;;;;18.15;60.59;101732.66;4935886;29;19918;-88
2021/10/25 12:27:11;;;;;;;;;;;;;;;18.12;61.00;101738.34;4938852;29;20029;-88
2021/10/25 12:29:37;;;;;;;;;;;;;;;19.38;56.29;101727.03;4938943;29;20381;-87
2021/10/25 12:32:08;;;;;;;;;;;;;;;18.31;60.60;101727.03;4938724;29;19923;-88
2021/10/25 12:34:33;;;;;;;;;;;;;;;18.20;60.57;101731.34;4938604;29;19922;-87
2021/10/25 12:37:00;;;;;;;;;;;;;;;18.72;59.06;101727.00;4936823;29;19973;-88
2021/10/25 12:39:25;;;;;;;;;;;;;;;19.40;56.79;101727.84;4936504;29;20028;-89
2021/10/25 12:41:56;;;;;;;;;;;;;;;19.33;56.04;101721.00;4938663;29;19958;-88
2021/10/25 12:44:26;;;;;;;;;;;;;;;19.35;56.55;101731.88;4955299;29;20001;-87
2021/10/25 12:46:54;;;;;;;;;;;;;;;19.75;54.51;101729.91;4937091;29;19982;-89
2021/10/25 12:49:21;;;;;;;;;;;;;;;19.83;54.83;101730.25;4937485;29;20316;-86
2021/10/25 12:51:46;;;;;;;;;;;;;;;19.29;55.57;101731.34;4956304;29;19941;-86
2021/10/25 12:54:12;;;;;;;;;;;;;;;18.45;58.83;101728.84;4941776;29;20021;-85
2021/10/25 12:56:37;;;;;;;;;;;;;;;18.46;58.61;101722.41;4941594;29;19919;-87
2021/10/25 12:59:04;;;;;;;;;;;;;;;19.52;56.19;101716.94;4939400;29;20300;-87
2021/10/25 13:01:29;;;;;;;;;;;;;;;19.15;56.26;101717.69;4938438;29;19927;-88
2021/10/25 13:03:58;;;;;;;;;;;;;;;18.83;58.33;101722.66;4939930;29;20392;-87
2021/10/25 13:06:28;;;;;;;;;;;;;;;18.93;57.50;101713.72;4938462;29;19945;-87
2021/10/25 13:09:06;;;;;;;;;;;;;;;19.23;56.88;101715.28;4938054;29;19919;-87
2021/10/25 13:11:31;;;;;;;;;;;;;;;19.82;54.96;101714.78;4938744;29;19918;-86
2021/10/25 13:13:58;;;;;;;;;;;;;;;19.10;56.47;101718.03;4955264;28;19980;-84
2021/10/25 13:16:29;;;;;;;;;;;;;;;19.85;55.06;101712.78;4942038;29;19918;-86
2021/10/25 13:18:54;;;;;;;;;;;;;;;18.92;57.90;101713.81;4942604;29;20300;-87
2021/10/25 13:21:20;;;;;;;;;;;;;;;18.47;58.86;101718.69;4942428;29;19922;-86
2021/10/25 13:23:46;;;;;;;;;;;;;;;18.53;59.19;101713.66;4942646;29;20360;-89
2021/10/25 13:26:11;;;;;;;;;;;;;;;18.32;59.88;101704.16;4942388;29;20463;-87
2021/10/25 13:28:38;;;;;;;;;;;;;;;18.56;59.20;101704.34;4942400;29;19925;-85
2021/10/25 13:31:03;;;;;;;;;;;;;;;19.82;55.49;101700.16;4942794;29;19929;-88
2021/10/25 13:33:34;;;;;;;;;;;;;;;18.69;57.91;101709.88;4942257;29;20297;-89
2021/10/25 13:35:59;;;;;;;;;;;;;;;19.44;56.47;101701.91;4942264;29;20268;-88
2021/10/25 13:38:25;;;;;;;;;;;;;;;18.40;60.15;101704.50;4940688;28;19926;-89
2021/10/25 13:40:51;;;;;;;;;;;;;;;18.09;60.75;101697.44;4943242;29;19972;-88
2021/10/25 13:43:17;;;;;;;;;;;;;;;18.81;59.12;101698.09;4939710;29;20061;-87
2021/10/25 13:45:43;;;;;;;;;;;;;;;18.54;59.22;101703.56;4939199;29;19919;-86
2021/10/25 13:48:09;;;;;;;;;;;;;;;18.73;58.65;101693.09;4940868;29;19945;-86
2021/10/25 13:50:34;;;;;;;;;;;;;;;18.52;59.45;101692.72;4958038;29;19919;-87
2021/10/25 13:53:00;;;;;;;;;;;;;;;18.89;57.91;101689.38;4958328;29;20000;-87
2021/10/25 13:55:26;;;;;;;;;;;;;;;18.45;58.59;101693.22;4940899;29;19922;-84
2021/10/25 13:57:51;;;;;;;;;;;;;;;19.21;56.85;101683.47;4939949;29;19926;-85
2021/10/25 14:00:17;;;;;;;;;;;;;;;19.37;56.05;101683.25;4940036;29;20017;-85
2021/10/25 14:02:44;;;;;;;;;;;;;;;18.95;57.61;101677.97;4939648;29;19926;-84
2021/10/25 14:05:17;;;;;;;;;;;;;;;19.80;54.65;101682.91;4940774;29;19925;-88
2021/10/25 14:07:42;;;;;;;;;;;;;;;19.03;57.72;101682.91;4958170;29;20030;-87
2021/10/25 14:10:21;;;;;;;;;;;;;;;18.27;60.16;101673.44;4940901;29;20411;-87
2021/10/25 14:12:47;;;;;;;;;;;;;;;18.34;59.97;101681.16;4938711;29;20381;-87
2021/10/25 14:15:25;;;;;;;;;;;;;;;18.78;58.83;101671.75;4939562;29;20234;-86
2021/10/25 14:17:54;;;;;;;;;;;;;;;19.55;56.41;101673.72;4940593;29;20178;-89
2021/10/25 14:20:20;;;;;;;;;;;;;;;18.76;58.49;101668.22;4936960;29;19918;-86
2021/10/25 14:23:00;;;;;;;;;;;;;;;19.53;56.81;101670.19;4940752;29;19965;-91
2021/10/25 14:25:26;;;;;;;;;;;;;;;19.59;55.75;101666.13;4928106;29;19918;-88
2021/10/25 14:27:51;;;;;;;;;;;;;;;19.32;55.75;101667.13;4940061;29;19926;-89
2021/10/25 14:30:22;;;;;;;;;;;;;;;19.25;56.24;101669.44;4941007;29;19923;-91